createdAt,value
2022-11-21T00:01:24.226Z,-3.60
2022-11-21T00:03:52.218Z,-3.40
2022-11-21T00:06:20.755Z,-3.40
2022-11-21T00:08:48.421Z,-3.40
2022-11-21T00:11:16.524Z,-3.60
2022-11-21T00:13:44.626Z,-3.50
2022-11-21T00:16:14.853Z,-3.30
2022-11-21T00:18:44.190Z,-3.40
2022-11-21T00:21:18.207Z,-3.30
2022-11-21T00:23:47.351Z,-3.10
2022-11-21T00:26:16.779Z,-3.20
2022-11-21T00:28:45.267Z,-3.30
2022-11-21T00:31:23.670Z,-3.50
2022-11-21T00:33:51.324Z,-3.60
2022-11-21T00:36:19.138Z,-3.40
2022-11-21T00:38:46.771Z,-3.40
2022-11-21T00:41:14.343Z,-3.40
2022-11-21T00:43:41.955Z,-3.50
2022-11-21T00:46:09.631Z,-3.50
2022-11-21T00:48:37.216Z,-3.40
2022-11-21T00:51:04.907Z,-3.30
2022-11-21T00:53:32.594Z,-3.20
2022-11-21T00:56:00.266Z,-3.20
2022-11-21T00:58:27.980Z,-3.30
2022-11-21T01:01:13.245Z,-3.10
2022-11-21T01:03:41.928Z,-2.90
2022-11-21T01:06:11.715Z,-2.90
2022-11-21T01:08:41.720Z,-2.80
2022-11-21T01:11:14.181Z,-2.90
2022-11-21T01:13:42.160Z,-2.80
2022-11-21T01:16:12.484Z,-2.50
2022-11-21T01:18:40.752Z,-2.40
2022-11-21T01:21:24.033Z,-2.40
2022-11-21T01:23:52.416Z,-2.40
2022-11-21T01:26:25.447Z,-2.40
2022-11-21T01:28:53.543Z,-2.40
2022-11-21T01:31:23.618Z,-2.20
2022-11-21T01:33:52.549Z,-2.00
2022-11-21T01:36:26.375Z,-2.00
2022-11-21T01:38:56.299Z,-2.10
2022-11-21T01:41:33.827Z,-2.10
2022-11-21T01:44:22.398Z,-2.20
2022-11-21T01:46:51.563Z,-2.20
2022-11-21T01:49:27.248Z,-2.20
2022-11-21T01:52:00.557Z,-2.20
2022-11-21T01:54:37.540Z,-2.20
2022-11-21T01:57:22.325Z,-2.20
2022-11-21T02:00:01.761Z,-2.30
2022-11-21T02:02:36.496Z,-2.10
2022-11-21T02:05:08.381Z,-2.00
2022-11-21T02:07:41.190Z,-2.00
2022-11-21T02:10:10.384Z,-1.90
2022-11-21T02:12:41.288Z,-1.80
2022-11-21T02:15:09.319Z,-2.00
2022-11-21T02:17:36.993Z,-2.00
2022-11-21T02:20:10.051Z,-2.10
2022-11-21T02:22:59.707Z,-2.00
2022-11-21T02:25:34.143Z,-1.90
2022-11-21T02:28:05.568Z,-1.90
2022-11-21T02:30:37.426Z,-1.70
2022-11-21T02:33:05.725Z,-1.70
2022-11-21T02:35:34.186Z,-1.60
2022-11-21T02:38:06.794Z,-1.50
2022-11-21T02:40:43.776Z,-1.60
2022-11-21T02:43:33.432Z,-1.60
2022-11-21T02:46:01.108Z,-1.60
2022-11-21T02:48:28.681Z,-1.60
2022-11-21T02:50:56.272Z,-1.60
2022-11-21T02:53:23.937Z,-1.50
2022-11-21T02:55:51.620Z,-1.40
2022-11-21T02:58:19.760Z,-1.30
2022-11-21T03:00:47.426Z,-1.30
2022-11-21T03:03:15.109Z,-1.30
2022-11-21T03:05:43.221Z,-1.30
2022-11-21T03:08:10.920Z,-1.20
2022-11-21T03:10:38.724Z,-1.10
2022-11-21T03:13:06.324Z,-1.20
2022-11-21T03:15:35.301Z,-1.20
2022-11-21T03:18:04.202Z,-1.20
2022-11-21T03:20:34.428Z,-1.40
2022-11-21T03:23:02.692Z,-1.50
2022-11-21T03:25:30.386Z,-1.40
2022-11-21T03:27:58.108Z,-1.40
2022-11-21T03:30:27.117Z,-1.30
2022-11-21T03:32:58.748Z,-1.30
2022-11-21T03:35:26.627Z,-1.30
2022-11-21T03:38:19.029Z,-1.30
2022-11-21T03:40:50.848Z,-1.40
2022-11-21T03:43:18.492Z,-1.40
2022-11-21T03:45:49.285Z,-1.50
2022-11-21T03:48:16.930Z,-1.40
2022-11-21T03:50:45.026Z,-1.40
2022-11-21T03:53:12.612Z,-1.40
2022-11-21T03:55:40.305Z,-1.40
2022-11-21T03:58:07.942Z,-1.50
2022-11-21T04:00:35.572Z,-1.60
2022-11-21T04:03:03.278Z,-1.60
2022-11-21T04:05:30.878Z,-1.60
2022-11-21T04:07:58.419Z,-1.60
2022-11-21T04:10:26.164Z,-1.60
2022-11-21T04:12:53.780Z,-1.70
2022-11-21T04:15:21.398Z,-1.80
2022-11-21T04:17:48.975Z,-1.70
2022-11-21T04:20:16.748Z,-1.60
2022-11-21T04:22:44.313Z,-1.60
2022-11-21T04:25:13.763Z,-1.60
2022-11-21T04:27:41.711Z,-1.50
2022-11-21T04:30:09.834Z,-1.50
2022-11-21T04:32:37.474Z,-1.40
2022-11-21T04:35:05.504Z,-1.50
2022-11-21T04:37:33.279Z,-1.40
2022-11-21T04:40:00.951Z,-1.30
2022-11-21T04:42:28.597Z,-1.20
2022-11-21T04:44:56.231Z,-1.30
2022-11-21T04:47:23.853Z,-1.40
2022-11-21T04:49:51.448Z,-1.30
2022-11-21T04:52:19.135Z,-1.30
2022-11-21T04:54:46.735Z,-1.30
2022-11-21T04:57:14.570Z,-1.30
2022-11-21T04:59:42.732Z,-1.30
2022-11-21T05:02:11.406Z,-1.30
2022-11-21T05:04:39.574Z,-1.40
2022-11-21T05:07:07.280Z,-1.30
2022-11-21T05:09:34.896Z,-1.20
2022-11-21T05:12:20.953Z,-1.20
2022-11-21T05:14:49.046Z,-1.30
2022-11-21T05:17:16.578Z,-1.30
2022-11-21T05:19:44.196Z,-1.20
2022-11-21T05:22:12.425Z,-1.30
2022-11-21T05:24:40.394Z,-1.40
2022-11-21T05:27:08.007Z,-1.30
2022-11-21T05:29:36.071Z,-1.40
2022-11-21T05:32:03.676Z,-1.50
2022-11-21T05:34:31.474Z,-1.40
2022-11-21T05:36:59.237Z,-1.40
2022-11-21T05:39:27.693Z,-1.30
2022-11-21T05:41:59.784Z,-1.30
2022-11-21T05:44:30.788Z,-1.20
2022-11-21T05:46:58.581Z,-1.30
2022-11-21T05:49:26.418Z,-1.40
2022-11-21T05:51:53.934Z,-1.40
2022-11-21T05:54:23.611Z,-1.60
2022-11-21T05:56:51.279Z,-1.70
2022-11-21T05:59:18.866Z,-1.70
2022-11-21T06:02:04.803Z,-1.70
2022-11-21T06:04:32.404Z,-1.70
2022-11-21T06:07:00.209Z,-1.80
2022-11-21T06:09:27.926Z,-1.70
2022-11-21T06:11:55.523Z,-1.70
2022-11-21T06:14:23.245Z,-1.60
2022-11-21T06:16:50.916Z,-1.70
2022-11-21T06:19:18.604Z,-1.70
2022-11-21T06:21:46.256Z,-1.60
2022-11-21T06:24:16.043Z,-1.70
2022-11-21T06:26:47.961Z,-1.80
2022-11-21T06:29:16.888Z,-1.90
2022-11-21T06:31:44.470Z,-1.90
2022-11-21T06:34:12.035Z,-1.90
2022-11-21T06:36:39.654Z,-2.00
2022-11-21T06:39:07.277Z,-2.00
2022-11-21T06:41:35.084Z,-1.90
2022-11-21T06:44:02.833Z,-1.80
2022-11-21T06:46:30.513Z,-1.70
2022-11-21T06:48:58.197Z,-1.70
2022-11-21T06:51:26.254Z,-1.60
2022-11-21T06:53:56.156Z,-1.70
2022-11-21T06:56:28.280Z,-1.80
2022-11-21T06:58:56.475Z,-1.90
2022-11-21T07:01:24.831Z,-2.00
2022-11-21T07:03:53.309Z,-2.00
2022-11-21T07:06:21.239Z,-1.90
2022-11-21T07:09:04.984Z,-1.90
2022-11-21T07:11:39.610Z,-2.00
2022-11-21T07:14:09.292Z,-2.10
2022-11-21T07:16:37.578Z,-2.20
2022-11-21T07:19:05.686Z,-2.30
2022-11-21T07:21:33.534Z,-2.20
2022-11-21T07:24:04.271Z,-2.10
2022-11-21T07:26:31.921Z,-2.20
2022-11-21T07:28:59.578Z,-2.30
2022-11-21T07:31:27.382Z,-2.30
2022-11-21T07:33:54.999Z,-2.30
2022-11-21T07:36:22.629Z,-2.30
2022-11-21T07:38:50.181Z,-2.30
2022-11-21T07:41:18.011Z,-2.30
2022-11-21T07:43:45.915Z,-2.20
2022-11-21T07:46:13.880Z,-2.30
2022-11-21T07:48:41.633Z,-2.40
2022-11-21T07:51:10.187Z,-2.20
2022-11-21T07:53:37.820Z,-2.10
2022-11-21T07:56:05.661Z,-2.20
2022-11-21T07:58:33.249Z,-2.10
2022-11-21T08:01:05.503Z,-2.10
2022-11-21T08:03:34.447Z,-2.10
2022-11-21T08:06:06.311Z,-2.00
2022-11-21T08:08:33.889Z,-2.00
2022-11-21T08:11:05.603Z,-1.90
2022-11-21T08:13:34.431Z,-1.40
2022-11-21T08:16:05.508Z,-1.50
2022-11-21T08:18:33.293Z,-1.20
2022-11-21T08:21:02.664Z,-1.00
2022-11-21T08:23:30.653Z,-0.70
2022-11-21T08:25:58.294Z,-0.60
2022-11-21T08:28:25.915Z,-0.40
2022-11-21T08:30:53.820Z,-0.30
2022-11-21T08:33:23.658Z,-0.30
2022-11-21T08:35:51.228Z,-0.20
2022-11-21T08:38:18.870Z,0.00
2022-11-21T08:40:46.744Z,0.10
2022-11-21T08:43:14.331Z,0.10
2022-11-21T08:45:42.033Z,0.00
2022-11-21T08:48:11.729Z,-0.10
2022-11-21T08:50:39.594Z,0.10
2022-11-21T08:53:07.198Z,0.30
2022-11-21T08:55:34.881Z,0.20
2022-11-21T08:58:02.415Z,0.40
2022-11-21T09:00:30.041Z,0.40
2022-11-21T09:02:57.819Z,0.80
2022-11-21T09:05:25.384Z,1.00
2022-11-21T09:07:57.589Z,1.00
2022-11-21T09:10:26.592Z,0.90
2022-11-21T09:12:54.187Z,1.00
2022-11-21T09:15:40.247Z,1.10
2022-11-21T09:18:08.340Z,1.00
2022-11-21T09:20:41.820Z,1.40
2022-11-21T09:23:11.787Z,1.20
2022-11-21T09:25:40.134Z,1.30
2022-11-21T09:28:09.430Z,1.40
2022-11-21T09:30:37.537Z,1.60
2022-11-21T09:33:11.583Z,1.50
2022-11-21T09:35:39.873Z,1.50
2022-11-21T09:38:07.569Z,1.70
2022-11-21T09:40:36.460Z,1.80
2022-11-21T09:43:10.023Z,2.00
2022-11-21T09:45:47.641Z,2.30
2022-11-21T09:48:25.491Z,2.50
2022-11-21T09:50:59.848Z,2.60
2022-11-21T09:53:37.636Z,2.60
2022-11-21T09:56:09.107Z,2.80
2022-11-21T09:58:44.778Z,3.00
2022-11-21T10:01:17.298Z,3.00
2022-11-21T10:03:48.095Z,3.30
2022-11-21T10:06:21.751Z,3.50
2022-11-21T10:09:01.658Z,4.10
2022-11-21T10:12:37.988Z,4.80
2022-11-21T10:15:25.270Z,4.90
2022-11-21T10:17:59.209Z,5.40
2022-11-21T10:20:51.100Z,5.00
2022-11-21T10:23:54.884Z,5.20
2022-11-21T10:26:43.567Z,5.00
2022-11-21T10:29:37.681Z,4.80
2022-11-21T10:32:17.689Z,4.80
2022-11-21T10:34:47.307Z,4.50
2022-11-21T10:37:36.954Z,5.00
2022-11-21T10:40:33.393Z,4.90
2022-11-21T10:43:45.754Z,4.70
2022-11-21T10:46:13.375Z,5.30
2022-11-21T10:48:41.075Z,5.30
2022-11-21T10:51:18.388Z,5.40
2022-11-21T10:54:07.873Z,5.20
2022-11-21T10:56:37.124Z,5.30
2022-11-21T10:59:19.361Z,5.50
2022-11-21T11:01:56.417Z,5.90
2022-11-21T11:04:28.659Z,6.00
2022-11-21T11:07:28.086Z,6.10
2022-11-21T11:10:27.807Z,6.00
2022-11-21T11:13:44.563Z,6.00
2022-11-21T11:16:11.833Z,6.00
2022-11-21T11:18:47.140Z,5.90
2022-11-21T11:21:25.008Z,6.30
2022-11-21T11:23:54.637Z,6.20
2022-11-21T11:26:26.453Z,6.30
2022-11-21T11:29:31.090Z,6.10
2022-11-21T11:32:21.655Z,6.00
2022-11-21T11:35:01.515Z,5.80
2022-11-21T11:37:42.958Z,5.60
2022-11-21T11:40:28.504Z,5.30
2022-11-21T11:43:26.722Z,5.00
2022-11-21T11:46:52.679Z,5.00
2022-11-21T11:49:30.760Z,5.10
2022-11-21T11:52:03.610Z,5.20
2022-11-21T11:54:39.042Z,5.60
2022-11-21T11:57:06.860Z,6.30
2022-11-21T12:00:08.109Z,7.80
2022-11-21T12:02:50.490Z,8.80
2022-11-21T12:05:25.254Z,9.60
2022-11-21T12:11:41.311Z,9.60
2022-11-21T12:14:40.357Z,9.40
2022-11-21T12:17:10.398Z,9.80
2022-11-21T12:19:39.383Z,10.50
2022-11-21T12:22:11.769Z,10.50
2022-11-21T12:24:43.002Z,10.60
2022-11-21T12:27:32.438Z,10.50
2022-11-21T12:30:18.342Z,9.70
2022-11-21T12:33:08.163Z,9.90
2022-11-21T12:36:16.728Z,10.70
2022-11-21T12:39:14.527Z,10.20
2022-11-21T12:42:21.665Z,9.30
2022-11-21T12:45:07.367Z,9.20
2022-11-21T12:48:24.836Z,11.20
2022-11-21T12:51:51.576Z,12.80
2022-11-21T12:54:41.024Z,13.50
2022-11-21T12:57:21.416Z,13.00
2022-11-21T12:59:56.364Z,12.80
2022-11-21T13:02:53.272Z,12.80
2022-11-21T13:05:35.556Z,11.90
2022-11-21T13:08:24.026Z,9.80
2022-11-21T13:11:42.948Z,8.20
2022-11-21T13:14:32.311Z,7.00
2022-11-21T13:17:17.876Z,6.30
2022-11-21T13:20:15.452Z,5.90
2022-11-21T13:22:45.364Z,5.40
2022-11-21T13:25:33.576Z,4.80
2022-11-21T13:28:19.574Z,4.50
2022-11-21T13:30:58.318Z,4.30
2022-11-21T13:33:35.269Z,3.90
2022-11-21T13:36:03.041Z,3.60
2022-11-21T13:38:30.678Z,3.50
2022-11-21T13:41:16.686Z,3.40
2022-11-21T13:43:44.903Z,3.40
2022-11-21T13:46:57.613Z,3.30
2022-11-21T13:49:34.206Z,3.20
2022-11-21T13:52:24.979Z,3.00
2022-11-21T13:55:35.937Z,3.00
2022-11-21T13:58:25.505Z,2.90
2022-11-21T14:01:06.681Z,2.80
2022-11-21T14:03:59.573Z,2.80
2022-11-21T14:06:36.543Z,2.70
2022-11-21T14:09:13.041Z,2.70
2022-11-21T14:11:49.705Z,2.60
2022-11-21T14:14:34.970Z,2.50
2022-11-21T14:17:24.393Z,2.50
2022-11-21T14:19:55.564Z,2.50
2022-11-21T14:22:45.610Z,2.40
2022-11-21T14:25:22.833Z,2.30
2022-11-21T14:27:54.697Z,2.20
2022-11-21T14:30:29.553Z,2.20
2022-11-21T14:32:57.650Z,2.10
2022-11-21T14:35:25.300Z,1.90
2022-11-21T14:37:55.175Z,1.80
2022-11-21T14:40:24.760Z,1.60
2022-11-21T14:42:52.301Z,1.50
2022-11-21T14:45:23.032Z,1.50
2022-11-21T14:47:53.620Z,1.40
2022-11-21T14:50:27.609Z,1.30
2022-11-21T14:52:59.537Z,1.30
2022-11-21T14:55:33.271Z,1.30
2022-11-21T14:58:03.997Z,1.30
2022-11-21T15:03:24.027Z,1.30
2022-11-21T15:06:07.908Z,1.30
2022-11-21T15:11:54.609Z,1.00
2022-11-21T15:14:25.062Z,0.80
2022-11-21T15:16:55.103Z,0.70
2022-11-21T15:19:32.790Z,0.70
2022-11-21T15:22:05.636Z,0.60
2022-11-21T15:24:40.022Z,0.40
2022-11-21T15:27:27.942Z,0.40
2022-11-21T15:30:06.297Z,0.30
2022-11-21T15:32:34.022Z,0.40
2022-11-21T15:35:31.999Z,0.30
2022-11-21T15:37:59.885Z,0.30
2022-11-21T15:40:28.311Z,0.30
2022-11-21T15:42:55.959Z,0.20
2022-11-21T15:45:26.477Z,0.10
2022-11-21T15:47:55.568Z,0.00
2022-11-21T15:50:24.972Z,0.00
2022-11-21T15:52:53.013Z,-0.10
2022-11-21T15:55:26.353Z,-0.10
2022-11-21T15:57:54.101Z,-0.20
2022-11-21T16:00:21.722Z,-0.20
2022-11-21T16:02:49.348Z,-0.30
2022-11-21T16:05:16.931Z,-0.40
2022-11-21T16:07:44.539Z,-0.30
2022-11-21T16:10:19.728Z,-0.30
2022-11-21T16:12:56.479Z,-0.30
2022-11-21T16:15:24.808Z,-0.40
2022-11-21T16:17:52.939Z,-0.50
2022-11-21T16:20:21.685Z,-0.50
2022-11-21T16:22:57.946Z,-0.60
2022-11-21T16:25:25.587Z,-0.70
2022-11-21T16:27:53.188Z,-0.60
2022-11-21T16:30:20.965Z,-0.70
2022-11-21T16:32:48.588Z,-0.80
2022-11-21T16:35:16.291Z,-0.70
2022-11-21T16:37:43.837Z,-0.70
2022-11-21T16:40:11.709Z,-0.70
2022-11-21T16:42:39.471Z,-0.80
2022-11-21T16:45:10.280Z,-0.90
2022-11-21T16:47:38.235Z,-0.90
2022-11-21T16:50:06.097Z,-0.90
2022-11-21T16:52:36.973Z,-0.90
2022-11-21T16:55:04.857Z,-1.00
2022-11-21T16:57:33.971Z,-1.10
2022-11-21T17:00:01.922Z,-1.10
2022-11-21T17:02:29.611Z,-1.10
2022-11-21T17:04:57.298Z,-1.10
2022-11-21T17:07:25.148Z,-1.20
2022-11-21T17:09:52.898Z,-1.20
2022-11-21T17:12:20.527Z,-1.20
2022-11-21T17:14:48.162Z,-1.20
2022-11-21T17:17:16.331Z,-1.10
2022-11-21T17:19:44.417Z,-1.30
2022-11-21T17:22:12.105Z,-1.30
2022-11-21T17:24:39.703Z,-1.40
2022-11-21T17:27:07.414Z,-1.40
2022-11-21T17:29:34.997Z,-1.50
2022-11-21T17:32:02.586Z,-1.50
2022-11-21T17:34:33.251Z,-1.60
2022-11-21T17:37:01.279Z,-1.50
2022-11-21T17:39:30.053Z,-1.60
2022-11-21T17:42:01.602Z,-1.60
2022-11-21T17:44:29.714Z,-1.60
2022-11-21T17:46:59.283Z,-1.70
2022-11-21T17:49:29.918Z,-1.70
2022-11-21T17:51:58.126Z,-1.70
2022-11-21T17:54:25.914Z,-1.60
2022-11-21T17:56:56.798Z,-1.70
2022-11-21T17:59:27.515Z,-1.60
2022-11-21T18:01:56.549Z,-1.60
2022-11-21T18:04:24.249Z,-1.80
2022-11-21T18:06:51.862Z,-1.80
2022-11-21T18:09:19.495Z,-1.70
2022-11-21T18:11:47.051Z,-1.90
2022-11-21T18:14:14.929Z,-1.80
2022-11-21T18:16:49.335Z,-1.70
2022-11-21T18:19:20.998Z,-1.70
2022-11-21T18:21:49.029Z,-1.90
2022-11-21T18:24:16.690Z,-2.00
2022-11-21T18:26:45.077Z,-1.90
2022-11-21T18:29:35.103Z,-1.90
2022-11-21T18:32:27.373Z,-2.00
2022-11-21T18:34:55.158Z,-1.90
2022-11-21T18:37:22.843Z,-1.90
2022-11-21T18:39:51.571Z,-1.90
2022-11-21T18:42:19.264Z,-2.00
2022-11-21T18:44:47.090Z,-2.00
2022-11-21T18:47:20.530Z,-2.00
2022-11-21T18:49:48.931Z,-2.20
2022-11-21T18:52:16.886Z,-2.20
2022-11-21T18:54:44.485Z,-2.20
2022-11-21T18:57:12.279Z,-2.20
2022-11-21T18:59:40.006Z,-2.20
2022-11-21T19:02:08.884Z,-2.20
2022-11-21T19:04:36.703Z,-2.20
2022-11-21T19:07:04.491Z,-2.20
2022-11-21T19:09:33.223Z,-2.10
2022-11-21T19:12:03.428Z,-2.00
2022-11-21T19:14:31.256Z,-2.00
2022-11-21T19:16:59.132Z,-2.10
2022-11-21T19:19:36.191Z,-2.10
2022-11-21T19:22:05.607Z,-2.10
2022-11-21T19:24:33.532Z,-2.00
2022-11-21T19:27:01.178Z,-2.00
2022-11-21T19:29:30.323Z,-2.20
2022-11-21T19:31:58.232Z,-2.10
2022-11-21T19:34:25.862Z,-2.10
2022-11-21T19:36:53.510Z,-2.10
2022-11-21T19:39:21.222Z,-2.20
2022-11-21T19:41:49.930Z,-2.20
2022-11-21T19:44:17.635Z,-2.40
2022-11-21T19:46:45.342Z,-2.30
2022-11-21T19:49:13.008Z,-2.30
2022-11-21T19:51:41.958Z,-2.10
2022-11-21T19:54:12.497Z,-2.10
2022-11-21T19:56:40.473Z,-2.10
2022-11-21T19:59:10.692Z,-2.20
2022-11-21T20:01:38.921Z,-2.40
2022-11-21T20:04:07.035Z,-2.40
2022-11-21T20:06:35.833Z,-2.60
2022-11-21T20:09:12.041Z,-2.40
2022-11-21T20:11:41.603Z,-2.30
2022-11-21T20:14:19.551Z,-2.40
2022-11-21T20:16:49.873Z,-2.50
2022-11-21T20:19:19.390Z,-2.50
2022-11-21T20:21:47.218Z,-2.50
2022-11-21T20:24:15.256Z,-2.60
2022-11-21T20:26:43.643Z,-2.70
2022-11-21T20:29:13.647Z,-2.60
2022-11-21T20:31:42.107Z,-2.50
2022-11-21T20:34:13.990Z,-2.50
2022-11-21T20:36:42.828Z,-2.60
2022-11-21T20:39:16.089Z,-2.70
2022-11-21T20:41:45.446Z,-2.70
2022-11-21T20:47:11.158Z,-2.70
2022-11-21T20:49:39.063Z,-2.90
2022-11-21T20:53:43.973Z,-2.80
2022-11-21T20:54:54.694Z,-2.90
2022-11-21T20:57:23.718Z,-2.90
2022-11-21T20:59:51.537Z,-2.90
2022-11-21T21:02:29.007Z,-3.00
2022-11-21T21:04:56.604Z,-3.00
2022-11-21T21:07:24.251Z,-3.00
2022-11-21T21:09:53.479Z,-2.80
2022-11-21T21:12:21.784Z,-2.80
2022-11-21T21:14:49.449Z,-2.90
2022-11-21T21:17:17.039Z,-2.80
2022-11-21T21:19:44.665Z,-2.70
2022-11-21T21:22:12.330Z,-2.70
2022-11-21T21:24:39.956Z,-2.70
2022-11-21T21:27:07.600Z,-2.80
2022-11-21T21:29:35.217Z,-2.70
2022-11-21T21:32:02.987Z,-2.70
2022-11-21T21:34:32.602Z,-2.60
2022-11-21T21:37:00.778Z,-2.70
2022-11-21T21:39:28.422Z,-2.70
2022-11-21T21:41:56.005Z,-2.70
2022-11-21T21:44:28.316Z,-2.80
2022-11-21T21:46:59.295Z,-2.80
2022-11-21T21:49:29.359Z,-2.70
2022-11-21T21:51:57.048Z,-2.50
2022-11-21T21:54:24.776Z,-2.60
2022-11-21T21:56:52.509Z,-2.60
2022-11-21T21:59:20.134Z,-2.60
2022-11-21T22:01:51.105Z,-2.50
2022-11-21T22:04:19.393Z,-2.30
2022-11-21T22:06:47.123Z,-2.30
2022-11-21T22:09:14.742Z,-2.30
2022-11-21T22:11:42.438Z,-2.50
2022-11-21T22:14:13.365Z,-2.60
2022-11-21T22:16:42.354Z,-2.60
2022-11-21T22:19:10.527Z,-2.40
2022-11-21T22:21:38.981Z,-2.40
2022-11-21T22:24:25.564Z,-2.20
2022-11-21T22:26:54.176Z,-2.30
2022-11-21T22:29:21.870Z,-2.30
2022-11-21T22:31:50.912Z,-2.40
2022-11-21T22:34:18.800Z,-2.50
2022-11-21T22:36:47.035Z,-2.60
2022-11-21T22:39:15.902Z,-2.60
2022-11-21T22:41:43.614Z,-2.70
2022-11-21T22:44:11.191Z,-2.40
2022-11-21T22:46:38.952Z,-2.50
2022-11-21T22:49:06.606Z,-2.60
2022-11-21T22:51:34.909Z,-2.50
2022-11-21T22:54:02.503Z,-2.50
2022-11-21T22:56:30.195Z,-2.50
2022-11-21T22:58:57.864Z,-2.40
2022-11-21T23:01:26.391Z,-2.60
2022-11-21T23:03:55.820Z,-2.80
2022-11-21T23:06:26.209Z,-2.80
2022-11-21T23:08:55.633Z,-2.70
2022-11-21T23:11:28.654Z,-2.70
2022-11-21T23:13:57.079Z,-2.70
2022-11-21T23:16:25.707Z,-2.60
2022-11-21T23:18:57.094Z,-2.80
2022-11-21T23:21:26.379Z,-3.00
2022-11-21T23:23:54.021Z,-2.90
2022-11-21T23:26:21.699Z,-2.70
2022-11-21T23:28:49.499Z,-2.60
2022-11-21T23:31:17.338Z,-2.60
2022-11-21T23:33:44.961Z,-2.60
2022-11-21T23:36:12.857Z,-2.60
2022-11-21T23:38:40.530Z,-2.80
2022-11-21T23:41:08.060Z,-2.90
2022-11-21T23:43:35.672Z,-2.80
2022-11-21T23:46:03.340Z,-2.70
2022-11-21T23:48:30.946Z,-2.80
2022-11-21T23:50:58.527Z,-3.00
2022-11-21T23:53:26.245Z,-2.90
2022-11-21T23:55:53.837Z,-3.00
2022-11-21T23:58:21.465Z,-3.00
